Time;durP1;ratioP1;P1;durP2;ratioP2;P2;SDS_P1;SDS_P2;PMS_P1;PMS_P2;Temp;Humidity;BMP_temperature;BMP_pressure;BME280_temperature;BME280_humidity;BME280_pressure;Samples;Min_cycle;Max_cycle;Signal;HPM_P1;HPM_P2
2022/04/07 00:00:53;;;;;;;6.60;3.92;;;9.40;99.90;;;;;;5134201;27;20042;-70
2022/04/07 00:03:19;;;;;;;9.68;4.10;;;9.40;99.90;;;;;;5135505;27;20062;-66
2022/04/07 00:05:45;;;;;;;9.57;4.30;;;9.50;99.90;;;;;;5153238;27;20050;-68
2022/04/07 00:08:11;;;;;;;5.00;3.85;;;9.50;99.90;;;;;;5131516;27;20050;-68
2022/04/07 00:10:37;;;;;;;6.50;4.00;;;9.40;99.90;;;;;;5136377;27;20058;-68
2022/04/07 00:13:03;;;;;;;6.65;4.03;;;8.50;99.90;;;;;;5145531;27;20100;-67
2022/04/07 00:15:29;;;;;;;7.45;3.92;;;9.30;99.90;;;;;;5154695;27;20054;-67
2022/04/07 00:17:55;;;;;;;7.80;4.28;;;9.20;99.90;;;;;;5134735;27;20100;-68
2022/04/07 00:20:21;;;;;;;6.80;3.85;;;9.20;99.90;;;;;;5133634;28;20039;-68
2022/04/07 00:22:47;;;;;;;7.72;4.53;;;9.20;99.90;;;;;;5139671;27;20043;-67
2022/04/07 00:25:13;;;;;;;5.15;4.25;;;9.10;99.90;;;;;;5136006;27;20126;-67
2022/04/07 00:27:39;;;;;;;10.80;4.28;;;9.10;99.90;;;;;;5141702;27;20034;-66
2022/04/07 00:30:05;;;;;;;6.28;4.30;;;9.10;99.90;;;;;;5129280;27;20406;-65
2022/04/07 00:32:31;;;;;;;5.93;3.92;;;9.10;99.90;;;;;;5151692;27;20054;-68
2022/04/07 00:34:57;;;;;;;7.20;4.40;;;9.10;99.90;;;;;;5134941;27;20320;-68
2022/04/07 00:37:23;;;;;;;6.13;4.30;;;9.00;99.90;;;;;;5153223;27;20046;-67
2022/04/07 00:39:50;;;;;;;8.93;4.57;;;9.00;99.90;;;;;;5135079;27;20055;-66
2022/04/07 00:42:16;;;;;;;8.68;5.13;;;9.00;99.90;;;;;;5118850;28;20494;-67
2022/04/07 00:44:43;;;;;;;8.05;5.65;;;8.90;99.90;;;;;;5138490;27;20039;-67
2022/04/07 00:47:09;;;;;;;7.85;6.13;;;8.90;99.90;;;;;;5140294;27;20494;-68
2022/04/07 00:49:34;;;;;;;9.05;7.57;;;8.90;99.90;;;;;;5126768;27;20057;-66
2022/04/07 00:52:00;;;;;;;8.93;7.20;;;8.90;99.90;;;;;;5153569;27;20119;-69
2022/04/07 00:54:26;;;;;;;9.80;8.32;;;8.90;99.90;;;;;;5154407;27;20057;-67
2022/04/07 00:56:55;;;;;;;8.15;7.18;;;9.00;99.90;;;;;;5142300;27;20043;-67
2022/04/07 00:59:22;;;;;;;10.38;8.70;;;9.00;99.90;;;;;;5103510;28;20048;-69
2022/04/07 01:01:48;;;;;;;11.88;8.32;;;9.00;99.90;;;;;;5147792;27;20050;-68
2022/04/07 01:04:15;;;;;;;10.98;8.02;;;9.00;99.90;;;;;;5151228;27;20046;-68
2022/04/07 01:06:44;;;;;;;9.75;8.10;;;9.00;99.90;;;;;;5133898;27;20092;-68
2022/04/07 01:09:10;;;;;;;10.85;8.13;;;8.90;99.90;;;;;;5135567;27;20046;-67
2022/04/07 01:11:37;;;;;;;9.15;8.02;;;8.90;99.90;;;;;;5125818;28;20047;-68
2022/04/07 01:14:04;;;;;;;10.90;8.30;;;8.90;99.90;;;;;;5133341;27;20065;-67
2022/04/07 01:16:30;;;;;;;10.25;8.63;;;8.90;99.90;;;;;;5133096;27;20055;-67
2022/04/07 01:18:59;;;;;;;11.18;8.00;;;8.90;99.90;;;;;;5134952;27;20055;-66
2022/04/07 01:21:28;;;;;;;13.00;8.25;;;8.90;99.90;;;;;;5136954;27;20055;-67
2022/04/07 01:24:05;;;;;;;10.10;7.07;;;8.90;99.90;;;;;;5146757;27;20050;-68
2022/04/07 01:26:34;;;;;;;11.75;7.90;;;8.90;99.90;;;;;;5142928;27;20143;-68
2022/04/07 01:29:00;;;;;;;8.20;6.90;;;8.90;99.90;;;;;;5154649;27;20125;-68
2022/04/07 01:31:27;;;;;;;10.38;6.57;;;8.90;99.90;;;;;;5118279;27;20043;-68
2022/04/07 01:33:53;;;;;;;11.90;6.95;;;8.90;99.90;;;;;;5133412;27;20134;-68
2022/04/07 01:36:19;;;;;;;9.50;6.63;;;8.90;99.90;;;;;;5153702;27;20483;-67
2022/04/07 01:38:46;;;;;;;8.70;6.38;;;9.00;99.90;;;;;;5136420;27;20047;-67
2022/04/07 01:41:12;;;;;;;9.27;5.68;;;8.90;99.90;;;;;;5118879;27;20057;-67
2022/04/07 01:43:40;;;;;;;7.70;5.35;;;8.90;99.90;;;;;;5117283;27;20138;-67
2022/04/07 01:46:07;;;;;;;10.15;5.43;;;8.90;99.90;;;;;;5136084;27;20054;-70
2022/04/07 01:48:33;;;;;;;7.82;5.10;;;8.90;99.90;;;;;;5153381;27;20078;-68
2022/04/07 01:50:59;;;;;;;7.63;4.65;;;8.90;99.90;;;;;;5126011;27;20047;-66
2022/04/07 01:53:25;;;;;;;6.50;4.32;;;8.80;99.90;;;;;;5118170;27;20068;-70
2022/04/07 01:55:52;;;;;;;8.57;3.97;;;8.90;99.90;;;;;;5138110;27;20134;-68
2022/04/07 01:58:18;;;;;;;8.05;3.58;;;8.90;99.90;;;;;;5153993;27;20082;-67
2022/04/07 02:00:45;;;;;;;8.48;3.78;;;8.90;99.90;;;;;;5122283;27;20047;-66
2022/04/07 02:03:10;;;;;;;7.05;3.58;;;8.90;99.90;;;;;;5156257;27;20055;-68
2022/04/07 02:05:36;;;;;;;4.95;3.35;;;8.90;99.90;;;;;;5154677;27;20487;-68
2022/04/07 02:08:02;;;;;;;8.35;3.17;;;8.90;99.90;;;;;;5131432;27;20043;-69
2022/04/07 02:10:30;;;;;;;8.00;3.58;;;8.80;99.90;;;;;;5117703;27;20624;-66
2022/04/07 02:12:56;;;;;;;11.00;3.78;;;8.70;99.90;;;;;;5145575;27;20122;-67
2022/04/07 02:15:25;;;;;;;6.90;3.33;;;8.70;99.90;;;;;;5138158;27;20128;-69
2022/04/07 02:17:50;;;;;;;10.68;4.05;;;8.70;99.90;;;;;;5140021;27;20063;-70
2022/04/07 02:20:16;;;;;;;8.40;3.58;;;8.70;99.90;;;;;;5138371;27;20111;-67
2022/04/07 02:22:42;;;;;;;5.45;3.20;;;8.80;99.90;;;;;;5122598;27;20051;-68
2022/04/07 02:25:08;;;;;;;9.13;3.85;;;8.80;99.90;;;;;;5149486;27;20053;-67
2022/04/07 02:27:39;;;;;;;8.20;3.80;;;8.80;99.90;;;;;;5122450;27;20081;-68
2022/04/07 02:30:07;;;;;;;10.73;4.55;;;8.80;99.90;;;;;;5155636;27;20061;-70
2022/04/07 02:32:33;;;;;;;8.60;3.70;;;8.80;99.90;;;;;;5128409;27;20068;-68
2022/04/07 02:34:58;;;;;;;10.20;3.85;;;8.80;99.90;;;;;;5116952;27;20051;-68
2022/04/07 02:37:25;;;;;;;9.88;3.75;;;8.80;99.90;;;;;;5116572;27;20521;-68
2022/04/07 02:39:54;;;;;;;11.88;3.90;;;8.80;99.90;;;;;;5138456;27;20055;-68
2022/04/07 02:42:20;;;;;;;9.70;3.88;;;8.80;99.90;;;;;;5134761;27;20124;-67
2022/04/07 02:44:46;;;;;;;11.52;3.75;;;8.80;99.90;;;;;;5144655;27;20055;-68
2022/04/07 02:47:11;;;;;;;9.40;4.43;;;8.80;99.90;;;;;;5134983;27;20051;-70
2022/04/07 02:49:39;;;;;;;8.65;3.78;;;8.80;99.90;;;;;;5135174;27;20066;-66
2022/04/07 02:52:07;;;;;;;10.13;3.80;;;8.80;99.90;;;;;;5136037;27;20047;-66
2022/04/07 02:54:33;;;;;;;12.35;4.07;;;8.80;99.90;;;;;;5154866;27;20051;-67
2022/04/07 02:56:58;;;;;;;7.70;3.58;;;8.80;99.90;;;;;;5134788;27;20049;-67
2022/04/07 02:59:24;;;;;;;10.38;3.85;;;8.70;99.90;;;;;;5121331;27;20536;-67
2022/04/07 03:01:51;;;;;;;11.70;3.72;;;8.70;99.90;;;;;;5124155;27;20134;-68
2022/04/07 03:04:18;;;;;;;9.68;4.45;;;8.70;99.90;;;;;;5116393;27;20051;-67
2022/04/07 03:06:43;;;;;;;12.70;3.90;;;8.70;99.90;;;;;;5136530;27;20058;-67
2022/04/07 03:09:09;;;;;;;10.55;4.47;;;8.70;99.90;;;;;;5155007;27;20133;-67
2022/04/07 03:11:34;;;;;;;7.38;3.60;;;8.70;99.90;;;;;;5139586;27;20047;-68
2022/04/07 03:14:00;;;;;;;7.72;3.25;;;8.80;99.90;;;;;;5155620;27;20055;-66
2022/04/07 03:16:25;;;;;;;8.63;3.33;;;8.80;99.90;;;;;;5132994;27;20061;-67
2022/04/07 03:18:51;;;;;;;12.60;3.67;;;8.80;99.90;;;;;;5120543;27;20469;-68
2022/04/07 03:21:17;;;;;;;8.90;3.47;;;8.80;99.90;;;;;;5151004;27;20498;-68
2022/04/07 03:23:42;;;;;;;8.27;2.97;;;8.70;99.90;;;;;;5116020;27;20078;-68
2022/04/07 03:26:08;;;;;;;8.65;3.05;;;8.60;99.90;;;;;;5133622;27;20527;-67
2022/04/07 03:28:33;;;;;;;10.27;2.92;;;8.60;99.90;;;;;;5116827;27;20061;-68
2022/04/07 03:30:59;;;;;;;8.40;3.13;;;8.50;99.90;;;;;;5134194;27;20043;-68
2022/04/07 03:33:24;;;;;;;7.03;3.47;;;8.50;99.90;;;;;;5135342;27;20069;-70
2022/04/07 03:35:50;;;;;;;11.38;3.30;;;8.50;99.90;;;;;;5135075;27;20104;-69
2022/04/07 03:38:16;;;;;;;9.40;3.30;;;8.50;99.90;;;;;;5135158;27;20046;-67
2022/04/07 03:40:41;;;;;;;7.90;3.15;;;8.50;99.90;;;;;;5133653;27;20047;-66
2022/04/07 03:43:07;;;;;;;5.95;2.10;;;8.50;99.90;;;;;;5120166;27;20047;-69
2022/04/07 03:45:32;;;;;;;7.25;2.47;;;8.40;99.90;;;;;;5154551;27;20420;-69
2022/04/07 03:47:58;;;;;;;7.40;2.67;;;8.40;99.90;;;;;;5152670;27;20050;-67
2022/04/07 03:50:24;;;;;;;8.95;3.35;;;8.40;99.90;;;;;;5155496;27;20137;-67
2022/04/07 03:52:50;;;;;;;10.40;3.00;;;8.40;99.90;;;;;;5123901;27;20050;-69
2022/04/07 03:55:15;;;;;;;6.88;2.72;;;8.30;99.90;;;;;;5136139;27;20498;-70
2022/04/07 03:57:41;;;;;;;8.98;3.28;;;8.30;99.90;;;;;;5121489;27;20055;-68
2022/04/07 04:00:07;;;;;;;8.68;3.13;;;8.40;99.90;;;;;;5134130;27;20050;-67
2022/04/07 04:02:32;;;;;;;6.60;3.33;;;8.40;99.90;;;;;;5153472;27;20114;-69
2022/04/07 04:04:58;;;;;;;8.93;3.47;;;8.40;99.90;;;;;;5126436;27;20055;-67
2022/04/07 04:07:23;;;;;;;8.70;3.20;;;8.40;99.90;;;;;;5138134;27;20463;-67
2022/04/07 04:09:49;;;;;;;9.43;3.97;;;8.50;99.90;;;;;;5147335;27;20093;-67
2022/04/07 04:12:15;;;;;;;10.18;3.60;;;8.50;99.90;;;;;;5134728;27;20103;-66
2022/04/07 04:14:40;;;;;;;13.75;4.10;;;8.50;99.90;;;;;;5119046;28;20047;-71
2022/04/07 04:17:06;;;;;;;12.68;4.45;;;8.60;99.90;;;;;;5114904;28;20475;-68
2022/04/07 04:19:33;;;;;;;15.88;4.85;;;8.60;99.90;;;;;;5115773;28;20135;-69
2022/04/07 04:21:59;;;;;;;14.02;4.70;;;8.60;99.90;;;;;;5126418;28;20050;-69
2022/04/07 04:24:25;;;;;;;12.52;4.38;;;8.60;99.90;;;;;;5117612;27;20051;-68
2022/04/07 04:26:50;;;;;;;17.58;4.03;;;8.50;99.90;;;;;;5119057;27;20547;-67
2022/04/07 04:29:16;;;;;;;16.63;4.63;;;8.50;99.90;;;;;;5133256;27;20043;-67
2022/04/07 04:31:41;;;;;;;13.63;4.50;;;8.50;99.90;;;;;;5153664;27;20125;-68
2022/04/07 04:34:07;;;;;;;16.00;5.25;;;8.50;99.90;;;;;;5133491;27;20055;-71
2022/04/07 04:36:34;;;;;;;15.75;4.50;;;8.50;99.90;;;;;;5118735;28;20494;-67
2022/04/07 04:39:00;;;;;;;14.32;3.75;;;8.50;99.90;;;;;;5116605;28;20444;-67
2022/04/07 04:41:25;;;;;;;14.55;4.55;;;8.50;99.90;;;;;;5133252;27;20046;-68
2022/04/07 04:43:51;;;;;;;18.50;4.00;;;8.50;99.90;;;;;;5114794;28;20517;-66
2022/04/07 04:46:16;;;;;;;17.58;3.83;;;8.50;99.90;;;;;;5129159;27;20123;-69
2022/04/07 04:48:42;;;;;;;14.60;4.05;;;8.50;99.90;;;;;;5154188;27;20054;-67
2022/04/07 04:51:08;;;;;;;15.95;3.65;;;8.60;99.90;;;;;;5153519;27;20099;-67
2022/04/07 04:53:33;;;;;;;9.52;3.70;;;8.60;99.90;;;;;;5129492;27;20058;-67
2022/04/07 04:55:59;;;;;;;15.15;3.95;;;8.60;99.90;;;;;;5138718;27;20051;-67
2022/04/07 04:58:24;;;;;;;13.70;4.13;;;8.60;99.90;;;;;;5140726;27;20152;-68
2022/04/07 05:00:50;;;;;;;18.40;4.38;;;8.50;99.90;;;;;;5151333;27;20054;-69
2022/04/07 05:03:16;;;;;;;20.52;4.72;;;8.40;99.90;;;;;;5118596;27;20107;-68
2022/04/07 05:05:42;;;;;;;20.10;4.47;;;8.40;99.90;;;;;;5129250;27;20137;-68
2022/04/07 05:08:08;;;;;;;16.27;6.55;;;8.30;99.90;;;;;;5138342;27;20061;-69
2022/04/07 05:10:33;;;;;;;21.30;5.65;;;8.40;99.90;;;;;;5118744;27;20082;-67
2022/04/07 05:12:59;;;;;;;15.50;5.10;;;8.30;99.90;;;;;;5117803;27;20043;-67
2022/04/07 05:15:24;;;;;;;13.85;4.85;;;8.30;99.90;;;;;;5137040;27;20108;-68
2022/04/07 05:17:51;;;;;;;17.60;5.70;;;8.30;99.90;;;;;;5118087;27;20043;-67
2022/04/07 05:20:17;;;;;;;15.50;6.20;;;8.30;99.90;;;;;;5136823;27;20051;-69
2022/04/07 05:22:43;;;;;;;18.50;7.20;;;8.20;99.90;;;;;;5151135;27;20093;-71
2022/04/07 05:25:10;;;;;;;15.70;6.18;;;8.30;99.90;;;;;;5147563;27;20043;-68
2022/04/07 05:27:45;;;;;;;16.42;7.43;;;8.30;99.90;;;;;;5135638;27;20079;-68
2022/04/07 05:30:36;;;;;;;20.92;8.43;;;8.20;99.90;;;;;;5133115;27;20038;-69
2022/04/07 05:33:52;;;;;;;19.80;9.43;;;8.30;99.90;;;;;;5120796;27;20039;-69
2022/04/07 05:36:18;;;;;;;17.95;7.78;;;8.20;99.90;;;;;;5117974;27;20097;-70
2022/04/07 05:38:47;;;;;;;14.30;5.63;;;8.30;99.90;;;;;;5104082;27;20163;-69
2022/04/07 05:41:23;;;;;;;13.70;6.40;;;8.30;99.90;;;;;;5100797;27;20071;-69
2022/04/07 05:44:27;;;;;;;18.90;9.40;;;8.30;99.90;;;;;;5098859;27;20043;-69
2022/04/07 05:47:02;;;;;;;12.65;6.13;;;8.30;99.90;;;;;;5050131;28;20045;-69
2022/04/07 05:49:59;;;;;;;15.50;7.25;;;8.30;99.90;;;;;;5053893;28;20044;-69
2022/04/07 05:56:33;;;;;;;11.73;6.40;;;8.30;99.90;;;;;;5064017;28;20045;-68
2022/04/07 05:59:00;;;;;;;14.70;5.47;;;8.30;99.90;;;;;;5109001;27;20059;-70
2022/04/07 06:01:52;;;;;;;6.32;1.33;;;8.30;99.90;;;;;;5128544;27;20058;-69
2022/04/07 06:04:30;;;;;;;1.88;0.57;;;7.60;99.90;;;;;;5131566;27;20047;-69
2022/04/07 06:06:55;;;;;;;1.52;0.43;;;7.60;99.90;;;;;;5134559;27;20050;-68
2022/04/07 06:09:21;;;;;;;0.70;0.40;;;6.50;99.90;;;;;;5135389;27;20043;-68
2022/04/07 06:11:47;;;;;;;1.52;0.65;;;6.20;99.90;;;;;;5130479;27;20089;-69
2022/04/07 06:14:13;;;;;;;2.03;0.80;;;6.10;99.90;;;;;;5102879;28;20051;-69
2022/04/07 06:16:39;;;;;;;3.00;0.60;;;5.90;99.90;;;;;;5127724;27;20067;-66
2022/04/07 06:19:04;;;;;;;4.63;0.80;;;5.70;99.90;;;;;;5128331;27;20050;-67
2022/04/07 06:21:33;;;;;;;3.17;0.70;;;5.60;99.90;;;;;;5128109;27;20487;-68
2022/04/07 06:23:59;;;;;;;3.13;0.90;;;5.60;99.90;;;;;;5120332;27;20126;-69
2022/04/07 06:26:27;;;;;;;3.15;1.00;;;5.50;99.90;;;;;;5107018;27;20055;-70
2022/04/07 06:28:52;;;;;;;2.85;0.85;;;5.50;99.90;;;;;;5122455;27;20054;-69
2022/04/07 06:31:19;;;;;;;3.80;1.08;;;5.40;99.90;;;;;;5124937;27;20127;-67
2022/04/07 06:33:45;;;;;;;5.10;1.27;;;5.40;99.90;;;;;;5119014;27;20119;-70
2022/04/07 06:36:11;;;;;;;6.88;1.15;;;5.40;99.90;;;;;;5129379;27;20656;-69
2022/04/07 06:38:36;;;;;;;6.28;1.25;;;5.30;99.90;;;;;;5135034;27;20057;-66
2022/04/07 06:41:02;;;;;;;1.45;0.88;;;5.30;99.90;;;;;;5117598;27;20087;-69
2022/04/07 06:43:28;;;;;;;3.58;1.05;;;5.20;99.90;;;;;;5145413;27;20113;-68
2022/04/07 06:45:53;;;;;;;3.88;1.10;;;5.20;99.90;;;;;;5137255;27;20047;-68
2022/04/07 06:48:19;;;;;;;2.33;0.95;;;5.10;99.90;;;;;;5155585;27;20055;-67
2022/04/07 06:50:45;;;;;;;0.85;0.77;;;5.20;99.90;;;;;;5133140;27;20073;-67
2022/04/07 06:53:14;;;;;;;2.38;1.00;;;5.20;99.90;;;;;;5153936;27;20043;-68
2022/04/07 06:55:40;;;;;;;3.03;0.80;;;5.20;99.90;;;;;;5120067;27;20172;-66
2022/04/07 06:58:08;;;;;;;1.38;0.80;;;5.20;99.90;;;;;;5136699;27;20086;-68
2022/04/07 07:00:40;;;;;;;0.77;0.65;;;5.30;99.90;;;;;;5136355;27;20035;-69
2022/04/07 07:03:06;;;;;;;2.60;0.80;;;5.30;99.90;;;;;;5152685;27;20042;-68
2022/04/07 07:05:36;;;;;;;0.75;0.75;;;5.30;99.90;;;;;;5135695;27;20045;-67
2022/04/07 07:08:21;;;;;;;3.35;0.93;;;5.30;99.90;;;;;;5134890;27;20051;-68
2022/04/07 07:10:49;;;;;;;3.05;0.80;;;5.30;99.90;;;;;;5116069;27;20055;-67
2022/04/07 07:13:23;;;;;;;3.72;1.25;;;5.30;99.90;;;;;;5121855;27;20330;-68
2022/04/07 07:15:49;;;;;;;2.70;1.00;;;5.30;99.90;;;;;;5155510;27;20466;-68
2022/04/07 07:18:16;;;;;;;3.30;1.00;;;5.30;99.90;;;;;;5155369;27;20055;-67
2022/04/07 07:20:41;;;;;;;2.40;1.00;;;5.30;99.90;;;;;;5134955;27;20149;-69
2022/04/07 07:23:07;;;;;;;4.22;0.90;;;5.30;99.90;;;;;;5154247;27;20482;-67
2022/04/07 07:25:34;;;;;;;2.00;1.00;;;5.30;99.90;;;;;;5136529;27;20058;-66
2022/04/07 07:28:01;;;;;;;3.47;0.80;;;5.30;99.90;;;;;;5154821;27;20082;-69
2022/04/07 07:30:27;;;;;;;2.83;1.25;;;5.40;99.90;;;;;;5136452;27;20051;-67
2022/04/07 07:32:54;;;;;;;4.78;1.10;;;5.30;99.90;;;;;;5150007;27;20049;-68
2022/04/07 07:35:20;;;;;;;1.17;0.82;;;5.30;99.90;;;;;;5133037;27;20046;-68
2022/04/07 07:37:48;;;;;;;1.75;1.00;;;5.40;99.90;;;;;;5155098;27;20141;-67
2022/04/07 07:40:14;;;;;;;4.35;1.02;;;5.40;99.90;;;;;;5136553;27;20087;-65
2022/04/07 07:42:40;;;;;;;3.28;1.60;;;5.40;99.90;;;;;;5153021;27;20055;-65
2022/04/07 07:45:06;;;;;;;2.08;1.00;;;5.40;99.90;;;;;;5134304;27;20443;-67
2022/04/07 07:47:34;;;;;;;2.85;1.10;;;5.40;99.90;;;;;;5144657;27;20517;-68
2022/04/07 07:50:00;;;;;;;5.30;1.35;;;5.50;99.90;;;;;;5110601;27;20047;-69
2022/04/07 07:52:26;;;;;;;2.45;1.45;;;5.40;99.90;;;;;;5154112;27;20042;-66
2022/04/07 07:54:52;;;;;;;3.15;1.58;;;5.40;99.90;;;;;;5121040;27;20536;-67
2022/04/07 07:57:19;;;;;;;4.95;1.70;;;5.50;99.90;;;;;;5133274;27;20076;-67
2022/04/07 07:59:44;;;;;;;5.38;2.60;;;5.50;99.90;;;;;;5101918;27;20055;-66
2022/04/07 08:02:10;;;;;;;7.60;3.97;;;5.50;99.90;;;;;;5146010;27;20046;-66
2022/04/07 08:04:36;;;;;;;2.75;0.90;;;5.60;99.90;;;;;;5136404;27;20055;-68
2022/04/07 08:07:02;;;;;;;4.47;0.95;;;5.60;99.90;;;;;;5144647;27;20039;-67
2022/04/07 08:09:28;;;;;;;2.08;0.77;;;5.60;99.90;;;;;;5134712;27;20093;-66
2022/04/07 08:11:53;;;;;;;1.48;1.00;;;5.60;99.90;;;;;;5115157;28;20074;-66
2022/04/07 08:14:19;;;;;;;2.95;1.17;;;5.70;99.90;;;;;;5133518;28;20463;-68
2022/04/07 08:16:44;;;;;;;3.45;1.52;;;5.70;99.90;;;;;;5133841;28;20070;-67
2022/04/07 08:19:10;;;;;;;3.33;1.05;;;5.80;99.90;;;;;;5098704;28;20126;-67
2022/04/07 08:21:37;;;;;;;1.77;1.20;;;5.80;99.90;;;;;;5131712;27;20485;-69
2022/04/07 08:24:03;;;;;;;3.35;0.95;;;5.90;99.90;;;;;;5116439;28;20051;-68
2022/04/07 08:26:29;;;;;;;1.83;0.82;;;5.90;99.90;;;;;;5134052;27;20084;-68
2022/04/07 08:28:54;;;;;;;3.22;0.95;;;6.00;99.90;;;;;;5134658;27;20426;-68
2022/04/07 08:31:20;;;;;;;3.08;0.90;;;6.00;99.90;;;;;;5123590;27;20051;-68
2022/04/07 08:33:45;;;;;;;4.45;1.17;;;6.20;99.90;;;;;;5119572;27;20391;-68
2022/04/07 08:36:11;;;;;;;2.88;1.42;;;6.20;99.90;;;;;;5133173;27;20074;-67
2022/04/07 08:38:36;;;;;;;3.42;1.10;;;6.40;99.90;;;;;;5140175;27;20447;-67
2022/04/07 08:41:07;;;;;;;5.15;1.02;;;6.70;99.90;;;;;;5139541;27;20553;-69
2022/04/07 08:43:34;;;;;;;4.03;0.80;;;6.50;99.90;;;;;;5154716;27;20051;-67
2022/04/07 08:46:01;;;;;;;2.38;1.00;;;6.70;99.90;;;;;;5157077;27;20046;-68
2022/04/07 08:48:28;;;;;;;2.75;1.15;;;6.90;99.90;;;;;;5139153;27;20059;-67
2022/04/07 08:50:55;;;;;;;3.47;1.05;;;6.70;99.90;;;;;;5140113;27;20371;-66
2022/04/07 08:53:20;;;;;;;2.85;0.90;;;6.90;99.90;;;;;;5120342;27;20042;-67
2022/04/07 08:55:46;;;;;;;3.08;0.70;;;6.90;99.90;;;;;;5156701;27;20066;-67
2022/04/07 08:58:17;;;;;;;4.88;1.15;;;7.20;99.90;;;;;;5156839;27;20543;-68
2022/04/07 09:00:43;;;;;;;1.65;0.90;;;7.50;99.90;;;;;;5139207;27;20043;-68
2022/04/07 09:03:09;;;;;;;3.55;1.00;;;7.60;99.90;;;;;;5157493;27;20039;-67
2022/04/07 09:05:34;;;;;;;2.78;1.00;;;7.90;99.90;;;;;;5139124;27;20057;-68
2022/04/07 09:08:00;;;;;;;3.90;1.48;;;7.60;99.90;;;;;;5129659;27;20071;-68
2022/04/07 09:10:28;;;;;;;2.53;1.17;;;7.80;99.90;;;;;;5118487;27;20043;-66
2022/04/07 09:12:53;;;;;;;4.28;1.17;;;8.10;99.90;;;;;;5136486;27;20135;-67
2022/04/07 09:15:20;;;;;;;2.92;1.00;;;8.20;99.90;;;;;;5136733;27;20126;-68
2022/04/07 09:17:51;;;;;;;1.85;0.95;;;8.30;99.90;;;;;;5130809;27;20058;-68
2022/04/07 09:20:17;;;;;;;5.07;1.63;;;8.50;99.90;;;;;;5138295;27;20050;-68
2022/04/07 09:22:42;;;;;;;3.05;0.90;;;8.60;99.90;;;;;;5138568;27;20123;-67
2022/04/07 09:25:09;;;;;;;3.88;1.05;;;8.70;99.90;;;;;;5137720;27;20074;-66
2022/04/07 09:27:40;;;;;;;4.45;0.95;;;;;;;;;;5136428;27;20374;-66
2022/04/07 09:30:08;;;;;;;4.57;1.17;;;9.10;99.90;;;;;;5118852;27;20134;-67
2022/04/07 09:32:41;;;;;;;3.92;1.23;;;9.00;99.90;;;;;;5121579;27;20047;-66
2022/04/07 09:35:07;;;;;;;3.17;1.15;;;9.20;99.90;;;;;;5157057;27;20100;-68
2022/04/07 09:37:34;;;;;;;5.05;1.10;;;9.50;99.90;;;;;;5138599;27;20436;-67
2022/04/07 09:40:06;;;;;;;4.53;1.15;;;9.80;99.90;;;;;;5137077;27;20046;-66
2022/04/07 09:42:35;;;;;;;4.68;1.00;;;9.80;99.90;;;;;;5137527;27;20126;-66
2022/04/07 09:45:03;;;;;;;6.47;1.20;;;9.80;99.90;;;;;;5121780;27;20051;-68
2022/04/07 09:47:42;;;;;;;7.10;1.90;;;9.50;99.90;;;;;;5133160;27;20042;-67
2022/04/07 09:50:29;;;;;;;7.20;1.95;;;9.80;99.90;;;;;;5156149;27;20554;-68
2022/04/07 09:52:55;;;;;;;4.10;1.23;;;9.80;99.90;;;;;;5134484;27;20054;-68
2022/04/07 09:55:25;;;;;;;5.53;1.42;;;9.90;99.90;;;;;;5138416;27;20051;-67
2022/04/07 09:57:52;;;;;;;7.97;1.70;;;10.10;99.90;;;;;;5137403;27;20099;-67
2022/04/07 10:00:18;;;;;;;5.35;1.58;;;10.10;99.90;;;;;;5136766;27;20039;-69
2022/04/07 10:02:45;;;;;;;3.78;1.30;;;10.10;99.90;;;;;;5138029;27;20042;-69
2022/04/07 10:05:11;;;;;;;8.18;1.73;;;10.10;99.90;;;;;;5136687;27;20050;-67
2022/04/07 10:07:37;;;;;;;8.85;1.58;;;;;;;;;;5136398;27;20509;-67
2022/04/07 10:10:04;;;;;;;3.75;1.60;;;;;;;;;;5137272;27;20390;-66
2022/04/07 10:12:33;;;;;;;7.15;1.85;;;;;;;;;;5137487;27;20051;-68
2022/04/07 10:15:00;;;;;;;4.85;1.65;;;;;;;;;;5156908;27;20058;-68
2022/04/07 10:17:27;;;;;;;8.90;2.08;;;;;;;;;;5127797;27;20055;-66
2022/04/07 10:19:56;;;;;;;7.28;1.80;;;;;;;;;;5137232;27;20050;-69
2022/04/07 10:22:42;;;;;;;8.85;1.35;;;;;;;;;;5155772;27;20038;-67
2022/04/07 10:25:09;;;;;;;9.15;2.33;;;;;;;;;;5133076;27;20456;-68
2022/04/07 10:27:39;;;;;;;7.32;2.00;;;;;;;;;;5134792;27;20049;-67
2022/04/07 10:30:11;;;;;;;9.77;2.15;;;;;;;;;;5155910;27;20551;-67
2022/04/07 10:32:41;;;;;;;10.48;2.13;;;;;;;;;;5118494;27;20588;-65
2022/04/07 10:35:08;;;;;;;10.02;2.38;;;;;;;;;;5121458;27;20058;-66
2022/04/07 10:37:41;;;;;;;9.40;1.85;;;;;;;;;;5141590;27;20134;-69
2022/04/07 10:40:26;;;;;;;6.25;1.50;;;;;;;;;;5155802;27;20462;-68
2022/04/07 10:43:10;;;;;;;8.82;2.05;;;;;;;;;;5134694;27;20051;-69
2022/04/07 10:45:39;;;;;;;6.88;1.83;;;11.00;99.90;;;;;;5122399;27;20055;-68
2022/04/07 10:48:19;;;;;;;9.32;2.03;;;;;;;;;;5155266;27;20050;-69
2022/04/07 10:50:48;;;;;;;8.75;2.45;;;;;;;;;;5136382;27;20050;-67
2022/04/07 10:53:25;;;;;;;8.35;2.10;;;11.20;99.90;;;;;;5154276;27;20046;-67
2022/04/07 10:55:57;;;;;;;7.13;1.83;;;11.20;99.90;;;;;;5153210;27;20046;-69
2022/04/07 10:58:41;;;;;;;;;;;11.30;99.90;;;;;;5136830;27;20066;-69
2022/04/07 11:01:30;;;;;;;9.77;1.75;;;11.40;99.90;;;;;;5155792;27;19922;-67
2022/04/07 11:04:23;;;;;;;9.18;2.17;;;11.30;99.90;;;;;;5155172;27;20371;-69
2022/04/07 11:07:20;;;;;;;7.32;2.17;;;11.30;99.90;;;;;;5136078;27;20126;-68
2022/04/07 11:09:57;;;;;;;10.80;2.85;;;11.40;99.90;;;;;;5123760;27;20051;-66
2022/04/07 11:12:33;;;;;;;10.65;2.50;;;11.20;99.90;;;;;;5115984;27;20146;-68
2022/04/07 11:15:01;;;;;;;6.85;1.83;;;11.30;99.90;;;;;;5134830;27;20094;-68
2022/04/07 11:17:35;;;;;;;8.02;2.17;;;11.20;99.90;;;;;;5129476;27;20051;-66
2022/04/07 11:20:15;;;;;;;6.75;1.55;;;10.10;99.90;;;;;;5117561;27;20051;-67
2022/04/07 11:22:58;;;;;;;10.05;2.05;;;10.30;99.90;;;;;;5134558;27;20058;-66
2022/04/07 11:25:31;;;;;;;10.38;2.60;;;9.80;99.90;;;;;;5151056;27;20097;-67
2022/04/07 11:28:12;;;;;;;12.27;2.55;;;9.60;99.90;;;;;;5135954;27;20051;-67
2022/04/07 11:30:42;;;;;;;12.75;2.63;;;9.70;99.90;;;;;;5155757;27;20050;-66
2022/04/07 11:33:27;;;;;;;11.20;2.42;;;9.80;99.90;;;;;;5153932;27;20050;-68
2022/04/07 11:35:59;;;;;;;9.93;1.98;;;10.10;99.90;;;;;;5137083;27;20482;-67
2022/04/07 11:38:35;;;;;;;6.45;1.88;;;10.40;99.90;;;;;;5136068;27;20054;-70
2022/04/07 11:41:08;;;;;;;8.32;2.75;;;10.60;99.90;;;;;;5154526;27;20456;-69
2022/04/07 11:43:37;;;;;;;11.95;2.72;;;10.60;99.90;;;;;;5135180;27;20486;-68
2022/04/07 11:46:02;;;;;;;8.73;2.10;;;10.70;99.90;;;;;;5135565;27;20046;-66
2022/04/07 11:48:33;;;;;;;8.27;2.30;;;10.70;99.90;;;;;;5126595;27;20043;-68
2022/04/07 11:51:01;;;;;;;9.52;2.55;;;10.70;99.90;;;;;;5115801;27;20126;-66
2022/04/07 11:53:30;;;;;;;12.20;2.83;;;10.70;99.90;;;;;;5130849;27;20053;-67
2022/04/07 11:56:10;;;;;;;9.55;1.98;;;10.70;99.90;;;;;;5154580;27;20478;-68
2022/04/07 11:58:36;;;;;;;7.63;2.40;;;10.80;99.90;;;;;;5135618;27;20555;-67
2022/04/07 12:01:13;;;;;;;7.13;2.28;;;10.80;99.90;;;;;;5136505;27;20054;-67
2022/04/07 12:03:38;;;;;;;8.85;2.22;;;10.80;99.90;;;;;;5130343;27;20039;-69
2022/04/07 12:06:04;;;;;;;8.25;2.28;;;10.80;99.90;;;;;;5135744;27;20065;-67
2022/04/07 12:08:31;;;;;;;8.07;2.20;;;10.70;99.90;;;;;;5136018;27;20491;-69
2022/04/07 12:10:57;;;;;;;9.00;2.58;;;10.60;99.90;;;;;;5134837;27;20486;-67
2022/04/07 12:13:23;;;;;;;7.43;1.83;;;10.60;99.90;;;;;;5135517;27;20052;-66
2022/04/07 12:15:48;;;;;;;9.90;2.80;;;10.70;99.90;;;;;;5136207;27;20615;-67
2022/04/07 12:18:23;;;;;;;9.35;2.25;;;10.70;99.90;;;;;;5135450;27;20050;-67
2022/04/07 12:21:00;;;;;;;10.80;3.22;;;10.80;99.90;;;;;;5135914;27;20394;-67
2022/04/07 12:23:27;;;;;;;6.32;1.95;;;10.90;99.90;;;;;;5151831;27;20087;-68
2022/04/07 12:25:59;;;;;;;6.40;2.30;;;10.90;99.90;;;;;;5132615;27;20375;-67
2022/04/07 12:28:38;;;;;;;9.07;2.28;;;11.00;99.90;;;;;;5132432;27;20450;-66
2022/04/07 12:31:11;;;;;;;9.60;2.33;;;11.10;99.90;;;;;;5116206;27;20070;-68
2022/04/07 12:33:45;;;;;;;8.38;2.22;;;11.30;99.90;;;;;;5153819;27;20059;-68
2022/04/07 12:36:30;;;;;;;9.10;2.45;;;11.30;99.90;;;;;;5154040;27;20043;-68
2022/04/07 12:39:10;;;;;;;6.82;1.75;;;11.30;99.90;;;;;;5132500;27;20549;-68
2022/04/07 12:41:49;;;;;;;9.77;2.22;;;11.30;99.90;;;;;;5152645;27;20054;-66
2022/04/07 12:44:49;;;;;;;8.65;2.20;;;11.40;99.90;;;;;;5149306;27;20043;-67
2022/04/07 12:47:17;;;;;;;8.70;1.90;;;11.40;99.90;;;;;;5114895;28;20464;-67
2022/04/07 12:49:57;;;;;;;10.15;2.03;;;11.40;99.90;;;;;;5147245;27;20122;-67
2022/04/07 12:52:37;;;;;;;13.82;2.08;;;11.30;99.90;;;;;;5113276;27;20532;-67
2022/04/07 12:55:10;;;;;;;6.07;1.45;;;11.20;99.90;;;;;;5098077;28;20082;-68
2022/04/07 12:57:41;;;;;;;6.85;1.55;;;11.10;99.90;;;;;;5103653;27;20050;-68
2022/04/07 13:00:16;;;;;;;8.23;2.13;;;10.90;99.90;;;;;;5118663;27;20045;-66
2022/04/07 13:02:55;;;;;;;8.50;2.15;;;10.70;99.90;;;;;;5135096;27;20315;-66
2022/04/07 13:05:26;;;;;;;5.70;1.80;;;10.30;99.90;;;;;;5135296;27;20363;-67
2022/04/07 13:07:59;;;;;;;3.22;0.95;;;9.90;99.90;;;;;;5134696;27;20051;-67
2022/04/07 13:10:59;;;;;;;1.90;0.80;;;9.20;99.90;;;;;;5117932;27;20478;-68